sensor_id;sensor_type;location;lat;lon;timestamp;pressure;altitude;pressure_sealevel;temperature;humidity
7335;BME280;3708;42.632;23.378;2023-02-18T00:00:57;95033.53;;;8.36;39.92
7335;BME280;3708;42.632;23.378;2023-02-18T00:03:24;95042.25;;;8.45;40.05
7335;BME280;3708;42.632;23.378;2023-02-18T00:05:51;95039.81;;;8.35;40.20
7335;BME280;3708;42.632;23.378;2023-02-18T00:08:18;95025.84;;;8.08;40.67
7335;BME280;3708;42.632;23.378;2023-02-18T00:10:45;95032.75;;;8.17;40.96
7335;BME280;3708;42.632;23.378;2023-02-18T00:13:13;95025.22;;;7.97;40.86
7335;BME280;3708;42.632;23.378;2023-02-18T00:15:40;95019.66;;;8.04;41.23
7335;BME280;3708;42.632;23.378;2023-02-18T00:18:07;95018.09;;;8.21;40.66
7335;BME280;3708;42.632;23.378;2023-02-18T00:20:34;95008.16;;;8.05;40.56
7335;BME280;3708;42.632;23.378;2023-02-18T00:23:03;95006.38;;;8.19;40.86
7335;BME280;3708;42.632;23.378;2023-02-18T00:25:30;95006.06;;;8.25;40.46
7335;BME280;3708;42.632;23.378;2023-02-18T00:27:57;95001.94;;;8.01;41.80
7335;BME280;3708;42.632;23.378;2023-02-18T00:30:25;94991.94;;;8.08;40.99
7335;BME280;3708;42.632;23.378;2023-02-18T00:32:52;94982.47;;;8.12;41.12
7335;BME280;3708;42.632;23.378;2023-02-18T00:35:19;94984.34;;;7.74;41.94
7335;BME280;3708;42.632;23.378;2023-02-18T00:37:46;94980.03;;;8.02;41.56
7335;BME280;3708;42.632;23.378;2023-02-18T00:40:13;94978.03;;;8.12;41.04
7335;BME280;3708;42.632;23.378;2023-02-18T00:42:39;94972.66;;;8.22;40.70
7335;BME280;3708;42.632;23.378;2023-02-18T00:45:07;94972.03;;;8.30;40.60
7335;BME280;3708;42.632;23.378;2023-02-18T00:47:35;94977.28;;;8.44;40.70
7335;BME280;3708;42.632;23.378;2023-02-18T00:50:02;94984.22;;;8.16;40.62
7335;BME280;3708;42.632;23.378;2023-02-18T00:52:29;94978.72;;;8.36;40.77
7335;BME280;3708;42.632;23.378;2023-02-18T00:54:56;94981.78;;;7.88;41.20
7335;BME280;3708;42.632;23.378;2023-02-18T00:57:22;94980.84;;;8.16;40.95
7335;BME280;3708;42.632;23.378;2023-02-18T00:59:49;94986.00;;;8.21;40.36
7335;BME280;3708;42.632;23.378;2023-02-18T01:02:19;94977.34;;;8.25;40.89
7335;BME280;3708;42.632;23.378;2023-02-18T01:04:47;94975.84;;;8.19;40.73
7335;BME280;3708;42.632;23.378;2023-02-18T01:07:15;94975.06;;;8.00;40.77
7335;BME280;3708;42.632;23.378;2023-02-18T01:09:41;94986.31;;;7.82;41.25
7335;BME280;3708;42.632;23.378;2023-02-18T01:12:08;94983.38;;;8.02;40.93
7335;BME280;3708;42.632;23.378;2023-02-18T01:14:35;94979.31;;;8.15;41.45
7335;BME280;3708;42.632;23.378;2023-02-18T01:17:02;94971.88;;;8.22;40.99
7335;BME280;3708;42.632;23.378;2023-02-18T01:19:29;94975.25;;;8.22;40.90
7335;BME280;3708;42.632;23.378;2023-02-18T01:21:57;94970.59;;;8.38;40.56
7335;BME280;3708;42.632;23.378;2023-02-18T01:24:23;94979.34;;;8.28;40.23
7335;BME280;3708;42.632;23.378;2023-02-18T01:26:50;94976.91;;;8.51;40.36
7335;BME280;3708;42.632;23.378;2023-02-18T01:29:17;94982.69;;;8.34;39.65
7335;BME280;3708;42.632;23.378;2023-02-18T01:31:44;94971.66;;;8.37;40.31
7335;BME280;3708;42.632;23.378;2023-02-18T01:34:11;94973.81;;;8.49;40.18
7335;BME280;3708;42.632;23.378;2023-02-18T01:36:37;94969.16;;;8.45;40.35
7335;BME280;3708;42.632;23.378;2023-02-18T01:39:06;94970.34;;;8.53;40.14
7335;BME280;3708;42.632;23.378;2023-02-18T01:41:33;94970.91;;;8.36;40.27
7335;BME280;3708;42.632;23.378;2023-02-18T01:44:14;94960.66;;;8.40;39.69
7335;BME280;3708;42.632;23.378;2023-02-18T01:46:41;94972.47;;;8.51;40.03
7335;BME280;3708;42.632;23.378;2023-02-18T01:49:09;94971.66;;;8.37;39.69
7335;BME280;3708;42.632;23.378;2023-02-18T01:51:40;94986.56;;;8.18;39.82
7335;BME280;3708;42.632;23.378;2023-02-18T01:54:12;94972.25;;;8.34;39.94
7335;BME280;3708;42.632;23.378;2023-02-18T01:56:45;94990.44;;;8.20;40.16
7335;BME280;3708;42.632;23.378;2023-02-18T01:59:16;94988.53;;;8.07;40.30
7335;BME280;3708;42.632;23.378;2023-02-18T02:01:44;94988.16;;;8.32;40.60
7335;BME280;3708;42.632;23.378;2023-02-18T02:04:12;94981.09;;;8.52;40.17
7335;BME280;3708;42.632;23.378;2023-02-18T02:06:39;94992.13;;;8.76;39.59
7335;BME280;3708;42.632;23.378;2023-02-18T02:09:10;94990.91;;;8.73;39.83
7335;BME280;3708;42.632;23.378;2023-02-18T02:11:55;94990.28;;;8.76;39.65
7335;BME280;3708;42.632;23.378;2023-02-18T02:14:40;94974.94;;;8.75;39.53
7335;BME280;3708;42.632;23.378;2023-02-18T02:17:17;94975.47;;;8.26;39.82
7335;BME280;3708;42.632;23.378;2023-02-18T02:20:13;94977.94;;;8.36;39.60
7335;BME280;3708;42.632;23.378;2023-02-18T02:26:16;94965.69;;;8.36;39.77
7335;BME280;3708;42.632;23.378;2023-02-18T02:29:00;94983.97;;;7.81;40.59
7335;BME280;3708;42.632;23.378;2023-02-18T02:32:00;94969.25;;;7.90;40.55
7335;BME280;3708;42.632;23.378;2023-02-18T02:34:48;94970.00;;;8.27;40.27
7335;BME280;3708;42.632;23.378;2023-02-18T02:37:22;94968.28;;;8.18;40.37
7335;BME280;3708;42.632;23.378;2023-02-18T02:40:02;94964.53;;;8.42;40.24
7335;BME280;3708;42.632;23.378;2023-02-18T02:42:39;94956.69;;;8.42;39.84
7335;BME280;3708;42.632;23.378;2023-02-18T02:45:17;94952.03;;;8.39;39.88
7335;BME280;3708;42.632;23.378;2023-02-18T02:47:50;94966.91;;;8.25;40.48
7335;BME280;3708;42.632;23.378;2023-02-18T02:50:25;94948.63;;;8.25;40.29
7335;BME280;3708;42.632;23.378;2023-02-18T02:52:58;94947.63;;;8.21;40.26
7335;BME280;3708;42.632;23.378;2023-02-18T02:55:25;94942.19;;;8.18;40.15
7335;BME280;3708;42.632;23.378;2023-02-18T02:57:54;94950.44;;;7.93;40.01
7335;BME280;3708;42.632;23.378;2023-02-18T03:00:26;94942.66;;;8.06;40.38
7335;BME280;3708;42.632;23.378;2023-02-18T03:06:09;94945.34;;;8.33;40.09
7335;BME280;3708;42.632;23.378;2023-02-18T03:08:48;94958.69;;;8.32;39.69
7335;BME280;3708;42.632;23.378;2023-02-18T03:11:17;94964.78;;;8.27;40.03
7335;BME280;3708;42.632;23.378;2023-02-18T03:13:53;94958.03;;;8.40;40.08
7335;BME280;3708;42.632;23.378;2023-02-18T03:16:26;94974.38;;;8.45;39.93
7335;BME280;3708;42.632;23.378;2023-02-18T03:19:00;94961.81;;;8.34;39.94
7335;BME280;3708;42.632;23.378;2023-02-18T03:21:32;94967.44;;;8.22;40.02
7335;BME280;3708;42.632;23.378;2023-02-18T03:24:06;94969.00;;;8.05;40.08
7335;BME280;3708;42.632;23.378;2023-02-18T03:26:36;94960.75;;;8.16;40.26
7335;BME280;3708;42.632;23.378;2023-02-18T03:29:06;94982.31;;;8.22;40.34
7335;BME280;3708;42.632;23.378;2023-02-18T03:31:36;94995.34;;;8.22;40.05
7335;BME280;3708;42.632;23.378;2023-02-18T03:34:09;94994.47;;;8.13;40.28
7335;BME280;3708;42.632;23.378;2023-02-18T03:36:39;95000.50;;;7.76;40.63
7335;BME280;3708;42.632;23.378;2023-02-18T03:39:08;95017.97;;;7.76;41.21
7335;BME280;3708;42.632;23.378;2023-02-18T03:41:37;95017.03;;;7.48;41.69
7335;BME280;3708;42.632;23.378;2023-02-18T03:44:06;95014.88;;;7.74;41.72
7335;BME280;3708;42.632;23.378;2023-02-18T03:46:34;95017.66;;;7.96;41.71
7335;BME280;3708;42.632;23.378;2023-02-18T03:49:02;95019.94;;;7.65;41.42
7335;BME280;3708;42.632;23.378;2023-02-18T03:51:29;95019.03;;;7.93;41.11
7335;BME280;3708;42.632;23.378;2023-02-18T03:53:57;95021.00;;;8.01;41.66
7335;BME280;3708;42.632;23.378;2023-02-18T03:56:24;95032.97;;;7.65;41.82
7335;BME280;3708;42.632;23.378;2023-02-18T03:58:51;95027.19;;;7.68;42.40
7335;BME280;3708;42.632;23.378;2023-02-18T04:01:18;95026.69;;;7.66;42.11
7335;BME280;3708;42.632;23.378;2023-02-18T04:03:45;95020.78;;;7.79;41.62
7335;BME280;3708;42.632;23.378;2023-02-18T04:06:11;95024.50;;;7.73;41.58
7335;BME280;3708;42.632;23.378;2023-02-18T04:08:38;95013.09;;;7.69;42.10
7335;BME280;3708;42.632;23.378;2023-02-18T04:11:07;95006.56;;;7.72;42.16
7335;BME280;3708;42.632;23.378;2023-02-18T04:13:33;95006.94;;;7.79;41.97
7335;BME280;3708;42.632;23.378;2023-02-18T04:16:00;94997.44;;;7.69;42.06
7335;BME280;3708;42.632;23.378;2023-02-18T04:18:27;94991.66;;;7.53;41.87
7335;BME280;3708;42.632;23.378;2023-02-18T04:20:54;94987.16;;;7.59;42.13
7335;BME280;3708;42.632;23.378;2023-02-18T04:23:21;94979.75;;;7.66;41.95
7335;BME280;3708;42.632;23.378;2023-02-18T04:25:48;94988.00;;;7.73;41.67
7335;BME280;3708;42.632;23.378;2023-02-18T04:28:16;94977.56;;;7.73;42.40
7335;BME280;3708;42.632;23.378;2023-02-18T04:30:44;94972.13;;;7.88;41.67
7335;BME280;3708;42.632;23.378;2023-02-18T04:33:12;94971.81;;;7.76;41.98
7335;BME280;3708;42.632;23.378;2023-02-18T04:35:39;94974.88;;;7.59;42.25
7335;BME280;3708;42.632;23.378;2023-02-18T04:38:06;94972.38;;;7.54;42.68
7335;BME280;3708;42.632;23.378;2023-02-18T04:40:33;94983.06;;;7.53;42.32
7335;BME280;3708;42.632;23.378;2023-02-18T04:43:00;94975.59;;;7.46;42.38
7335;BME280;3708;42.632;23.378;2023-02-18T04:45:29;94974.53;;;7.47;42.84
7335;BME280;3708;42.632;23.378;2023-02-18T04:47:55;94973.22;;;7.50;43.04
7335;BME280;3708;42.632;23.378;2023-02-18T04:50:22;94978.47;;;7.63;41.99
7335;BME280;3708;42.632;23.378;2023-02-18T04:52:49;94981.59;;;7.65;42.56
7335;BME280;3708;42.632;23.378;2023-02-18T04:55:16;94982.94;;;7.63;41.60
7335;BME280;3708;42.632;23.378;2023-02-18T04:57:43;94980.19;;;7.73;41.59
7335;BME280;3708;42.632;23.378;2023-02-18T05:00:14;94989.56;;;7.74;42.39
7335;BME280;3708;42.632;23.378;2023-02-18T05:02:43;94993.78;;;7.70;41.75
7335;BME280;3708;42.632;23.378;2023-02-18T05:05:11;94991.47;;;7.68;42.88
7335;BME280;3708;42.632;23.378;2023-02-18T05:07:38;95003.34;;;7.56;42.43
7335;BME280;3708;42.632;23.378;2023-02-18T05:10:08;95009.34;;;7.56;41.98
7335;BME280;3708;42.632;23.378;2023-02-18T05:12:34;95014.09;;;7.73;42.33
7335;BME280;3708;42.632;23.378;2023-02-18T05:15:01;95006.91;;;7.65;42.24
7335;BME280;3708;42.632;23.378;2023-02-18T05:17:28;95009.72;;;7.68;42.31
7335;BME280;3708;42.632;23.378;2023-02-18T05:19:57;95015.84;;;7.59;41.92
7335;BME280;3708;42.632;23.378;2023-02-18T05:22:23;95009.06;;;7.39;42.28
7335;BME280;3708;42.632;23.378;2023-02-18T05:24:50;95002.97;;;7.25;42.73
7335;BME280;3708;42.632;23.378;2023-02-18T05:27:17;95006.88;;;7.23;42.88
7335;BME280;3708;42.632;23.378;2023-02-18T05:29:44;95009.41;;;7.09;42.85
7335;BME280;3708;42.632;23.378;2023-02-18T05:32:11;94992.50;;;7.07;43.37
7335;BME280;3708;42.632;23.378;2023-02-18T05:34:38;94987.34;;;7.02;43.60
7335;BME280;3708;42.632;23.378;2023-02-18T05:37:06;94973.28;;;7.03;43.41
7335;BME280;3708;42.632;23.378;2023-02-18T05:39:33;94984.19;;;7.05;43.10
7335;BME280;3708;42.632;23.378;2023-02-18T05:41:59;94981.47;;;7.15;43.14
7335;BME280;3708;42.632;23.378;2023-02-18T05:44:26;94989.63;;;7.27;43.05
7335;BME280;3708;42.632;23.378;2023-02-18T05:46:56;94984.03;;;7.57;42.71
7335;BME280;3708;42.632;23.378;2023-02-18T05:49:23;94999.41;;;7.58;42.58
7335;BME280;3708;42.632;23.378;2023-02-18T05:51:50;95000.19;;;7.59;42.27
7335;BME280;3708;42.632;23.378;2023-02-18T05:54:18;94996.81;;;7.58;42.23
7335;BME280;3708;42.632;23.378;2023-02-18T05:56:45;94995.53;;;7.75;42.67
7335;BME280;3708;42.632;23.378;2023-02-18T05:59:12;95007.88;;;7.88;42.10
7335;BME280;3708;42.632;23.378;2023-02-18T06:01:39;95003.16;;;7.71;42.58
7335;BME280;3708;42.632;23.378;2023-02-18T06:04:09;95013.25;;;7.78;42.30
7335;BME280;3708;42.632;23.378;2023-02-18T06:06:36;95008.56;;;7.75;42.42
7335;BME280;3708;42.632;23.378;2023-02-18T06:09:04;95028.13;;;7.35;42.58
7335;BME280;3708;42.632;23.378;2023-02-18T06:11:33;95021.41;;;7.52;42.88
7335;BME280;3708;42.632;23.378;2023-02-18T06:14:00;95015.56;;;7.79;42.42
7335;BME280;3708;42.632;23.378;2023-02-18T06:16:27;95013.25;;;7.59;42.52
7335;BME280;3708;42.632;23.378;2023-02-18T06:18:54;95022.88;;;7.58;42.70
7335;BME280;3708;42.632;23.378;2023-02-18T06:21:21;95008.31;;;7.76;42.26
7335;BME280;3708;42.632;23.378;2023-02-18T06:23:48;95018.19;;;7.98;41.85
7335;BME280;3708;42.632;23.378;2023-02-18T06:26:15;95023.47;;;7.74;42.36
7335;BME280;3708;42.632;23.378;2023-02-18T06:28:44;95001.69;;;7.65;41.98
7335;BME280;3708;42.632;23.378;2023-02-18T06:31:11;94999.84;;;7.84;42.24
7335;BME280;3708;42.632;23.378;2023-02-18T06:33:39;95009.78;;;8.19;41.74
7335;BME280;3708;42.632;23.378;2023-02-18T06:36:07;95001.63;;;8.39;41.35
7335;BME280;3708;42.632;23.378;2023-02-18T06:38:36;94991.78;;;8.36;41.22
7335;BME280;3708;42.632;23.378;2023-02-18T06:41:04;94995.88;;;8.56;40.36
7335;BME280;3708;42.632;23.378;2023-02-18T06:43:31;94993.47;;;8.60;40.05
7335;BME280;3708;42.632;23.378;2023-02-18T06:45:59;94989.81;;;8.74;40.27
7335;BME280;3708;42.632;23.378;2023-02-18T06:48:26;95000.28;;;9.01;39.99
7335;BME280;3708;42.632;23.378;2023-02-18T06:50:53;94997.69;;;9.15;39.81
7335;BME280;3708;42.632;23.378;2023-02-18T06:53:20;95005.22;;;9.30;39.38
7335;BME280;3708;42.632;23.378;2023-02-18T06:55:47;94989.22;;;9.45;39.24
7335;BME280;3708;42.632;23.378;2023-02-18T06:58:14;94995.41;;;9.63;39.19
7335;BME280;3708;42.632;23.378;2023-02-18T07:00:42;94983.84;;;9.77;38.59
7335;BME280;3708;42.632;23.378;2023-02-18T07:03:11;95000.47;;;9.59;38.58
7335;BME280;3708;42.632;23.378;2023-02-18T07:05:39;94989.75;;;9.83;38.16
7335;BME280;3708;42.632;23.378;2023-02-18T07:08:06;94999.88;;;9.98;37.97
7335;BME280;3708;42.632;23.378;2023-02-18T07:10:32;94993.09;;;9.97;37.96
7335;BME280;3708;42.632;23.378;2023-02-18T07:12:59;94992.50;;;10.00;37.49
7335;BME280;3708;42.632;23.378;2023-02-18T07:15:26;94996.38;;;10.03;38.17
7335;BME280;3708;42.632;23.378;2023-02-18T07:17:54;94984.63;;;10.36;38.29
7335;BME280;3708;42.632;23.378;2023-02-18T07:20:22;94991.41;;;10.15;38.33
7335;BME280;3708;42.632;23.378;2023-02-18T07:23:08;94987.13;;;10.41;38.65
7335;BME280;3708;42.632;23.378;2023-02-18T07:25:35;94979.28;;;10.41;39.04
7335;BME280;3708;42.632;23.378;2023-02-18T07:28:02;94977.75;;;10.48;38.80
7335;BME280;3708;42.632;23.378;2023-02-18T07:30:29;94985.16;;;10.77;38.81
7335;BME280;3708;42.632;23.378;2023-02-18T07:32:56;94981.09;;;10.93;38.45
7335;BME280;3708;42.632;23.378;2023-02-18T07:35:24;94967.34;;;10.96;38.30
7335;BME280;3708;42.632;23.378;2023-02-18T07:37:51;94978.84;;;10.78;38.00
7335;BME280;3708;42.632;23.378;2023-02-18T07:40:19;94986.75;;;10.87;37.41
7335;BME280;3708;42.632;23.378;2023-02-18T07:42:47;94988.34;;;10.96;37.53
7335;BME280;3708;42.632;23.378;2023-02-18T07:45:14;95003.13;;;10.92;37.44
7335;BME280;3708;42.632;23.378;2023-02-18T07:47:41;94991.94;;;11.17;37.46
7335;BME280;3708;42.632;23.378;2023-02-18T07:50:10;95010.81;;;11.36;37.30
7335;BME280;3708;42.632;23.378;2023-02-18T07:52:38;95016.66;;;11.25;37.17
7335;BME280;3708;42.632;23.378;2023-02-18T07:55:06;95010.38;;;11.34;36.95
7335;BME280;3708;42.632;23.378;2023-02-18T07:57:33;95014.13;;;11.50;36.24
7335;BME280;3708;42.632;23.378;2023-02-18T08:00:21;95012.69;;;11.75;36.12
7335;BME280;3708;42.632;23.378;2023-02-18T08:02:48;95007.91;;;11.94;35.24
7335;BME280;3708;42.632;23.378;2023-02-18T08:05:15;95013.75;;;12.00;35.02
7335;BME280;3708;42.632;23.378;2023-02-18T08:07:43;94990.13;;;12.08;35.02
7335;BME280;3708;42.632;23.378;2023-02-18T08:10:10;94999.09;;;12.16;34.70
7335;BME280;3708;42.632;23.378;2023-02-18T08:12:37;94993.38;;;12.31;34.59
7335;BME280;3708;42.632;23.378;2023-02-18T08:15:04;94998.31;;;12.41;33.83
7335;BME280;3708;42.632;23.378;2023-02-18T08:17:31;95009.59;;;12.24;34.21
7335;BME280;3708;42.632;23.378;2023-02-18T08:19:58;95000.31;;;12.44;34.37
7335;BME280;3708;42.632;23.378;2023-02-18T08:22:25;94995.59;;;12.84;34.09
7335;BME280;3708;42.632;23.378;2023-02-18T08:24:54;94983.69;;;12.78;33.07
7335;BME280;3708;42.632;23.378;2023-02-18T08:27:21;94984.34;;;12.66;33.10
7335;BME280;3708;42.632;23.378;2023-02-18T08:29:48;94990.00;;;12.85;33.11
7335;BME280;3708;42.632;23.378;2023-02-18T08:32:15;94984.44;;;12.95;33.02
7335;BME280;3708;42.632;23.378;2023-02-18T08:34:42;94991.16;;;13.14;33.45
7335;BME280;3708;42.632;23.378;2023-02-18T08:37:09;94983.66;;;13.33;33.12
7335;BME280;3708;42.632;23.378;2023-02-18T08:39:37;94978.22;;;13.67;33.13
7335;BME280;3708;42.632;23.378;2023-02-18T08:42:05;94974.88;;;13.58;32.63
7335;BME280;3708;42.632;23.378;2023-02-18T08:44:32;94976.72;;;13.57;32.47
7335;BME280;3708;42.632;23.378;2023-02-18T08:46:59;94973.47;;;13.81;32.44
7335;BME280;3708;42.632;23.378;2023-02-18T08:49:26;94969.50;;;13.75;32.25
7335;BME280;3708;42.632;23.378;2023-02-18T08:51:53;94965.31;;;13.95;31.08
7335;BME280;3708;42.632;23.378;2023-02-18T08:54:20;94976.59;;;13.54;31.72
7335;BME280;3708;42.632;23.378;2023-02-18T08:56:47;94974.88;;;13.58;31.02
7335;BME280;3708;42.632;23.378;2023-02-18T08:59:15;94983.72;;;13.53;31.72
7335;BME280;3708;42.632;23.378;2023-02-18T09:01:42;94984.91;;;13.64;31.91
7335;BME280;3708;42.632;23.378;2023-02-18T09:04:08;94988.84;;;13.50;31.84
7335;BME280;3708;42.632;23.378;2023-02-18T09:06:36;94983.34;;;13.63;31.63
7335;BME280;3708;42.632;23.378;2023-02-18T09:09:03;94987.56;;;13.56;32.19
7335;BME280;3708;42.632;23.378;2023-02-18T09:11:31;94990.66;;;13.58;32.15
7335;BME280;3708;42.632;23.378;2023-02-18T09:13:58;94995.75;;;13.84;32.61
7335;BME280;3708;42.632;23.378;2023-02-18T09:16:26;94997.25;;;14.14;32.06
7335;BME280;3708;42.632;23.378;2023-02-18T09:18:54;94995.72;;;14.33;31.26
7335;BME280;3708;42.632;23.378;2023-02-18T09:21:23;94991.97;;;14.34;30.64
7335;BME280;3708;42.632;23.378;2023-02-18T09:23:50;94978.19;;;14.49;30.60
7335;BME280;3708;42.632;23.378;2023-02-18T09:26:20;94983.72;;;14.57;30.49
7335;BME280;3708;42.632;23.378;2023-02-18T09:28:47;94986.63;;;14.76;29.89
7335;BME280;3708;42.632;23.378;2023-02-18T09:31:17;94989.41;;;14.79;30.23
7335;BME280;3708;42.632;23.378;2023-02-18T09:33:48;94976.66;;;14.81;29.80
7335;BME280;3708;42.632;23.378;2023-02-18T09:36:15;94977.88;;;14.96;30.31
7335;BME280;3708;42.632;23.378;2023-02-18T09:38:43;94952.41;;;15.24;30.40
7335;BME280;3708;42.632;23.378;2023-02-18T09:41:17;94963.59;;;15.57;30.04
7335;BME280;3708;42.632;23.378;2023-02-18T09:43:48;94954.81;;;15.65;29.07
7335;BME280;3708;42.632;23.378;2023-02-18T09:46:19;94948.59;;;15.85;28.65
7335;BME280;3708;42.632;23.378;2023-02-18T09:48:48;94962.91;;;15.84;28.42
7335;BME280;3708;42.632;23.378;2023-02-18T09:51:17;94960.28;;;15.84;28.12
7335;BME280;3708;42.632;23.378;2023-02-18T09:53:45;94951.75;;;16.03;28.00
7335;BME280;3708;42.632;23.378;2023-02-18T09:56:16;94954.50;;;16.34;27.95
7335;BME280;3708;42.632;23.378;2023-02-18T09:58:46;94958.75;;;15.71;28.70
7335;BME280;3708;42.632;23.378;2023-02-18T10:01:21;94958.03;;;15.98;28.33
7335;BME280;3708;42.632;23.378;2023-02-18T10:03:52;94957.03;;;15.51;28.70
7335;BME280;3708;42.632;23.378;2023-02-18T10:06:24;94956.56;;;15.25;29.14
7335;BME280;3708;42.632;23.378;2023-02-18T10:08:54;94958.22;;;15.54;29.12
7335;BME280;3708;42.632;23.378;2023-02-18T10:11:27;94950.25;;;15.90;29.31
7335;BME280;3708;42.632;23.378;2023-02-18T10:13:55;94947.94;;;15.88;28.54
7335;BME280;3708;42.632;23.378;2023-02-18T10:16:23;94948.34;;;16.30;28.23
7335;BME280;3708;42.632;23.378;2023-02-18T10:18:56;94945.72;;;16.46;28.36
7335;BME280;3708;42.632;23.378;2023-02-18T10:21:25;94947.88;;;16.84;27.60
7335;BME280;3708;42.632;23.378;2023-02-18T10:23:57;94944.66;;;16.90;27.50
7335;BME280;3708;42.632;23.378;2023-02-18T10:26:26;94946.50;;;17.36;27.01
7335;BME280;3708;42.632;23.378;2023-02-18T10:28:54;94948.13;;;17.41;26.88
7335;BME280;3708;42.632;23.378;2023-02-18T10:31:27;94944.44;;;17.96;26.92
7335;BME280;3708;42.632;23.378;2023-02-18T10:33:59;94929.91;;;18.28;26.29
7335;BME280;3708;42.632;23.378;2023-02-18T10:36:35;94931.94;;;18.35;26.18
7335;BME280;3708;42.632;23.378;2023-02-18T10:39:13;94934.59;;;18.54;26.95
7335;BME280;3708;42.632;23.378;2023-02-18T10:41:51;94930.25;;;18.87;26.03
7335;BME280;3708;42.632;23.378;2023-02-18T10:44:29;94920.69;;;19.06;25.14
7335;BME280;3708;42.632;23.378;2023-02-18T10:47:10;94907.31;;;19.21;24.56
7335;BME280;3708;42.632;23.378;2023-02-18T10:49:56;94910.59;;;19.15;24.27
7335;BME280;3708;42.632;23.378;2023-02-18T10:52:26;94904.97;;;19.20;24.00
7335;BME280;3708;42.632;23.378;2023-02-18T10:54:58;94900.00;;;19.15;24.63
7335;BME280;3708;42.632;23.378;2023-02-18T10:57:25;94897.81;;;17.95;25.08
7335;BME280;3708;42.632;23.378;2023-02-18T10:59:58;94888.09;;;18.41;24.79
7335;BME280;3708;42.632;23.378;2023-02-18T11:02:28;94883.56;;;19.09;24.29
7335;BME280;3708;42.632;23.378;2023-02-18T11:04:59;94888.09;;;19.57;23.81
7335;BME280;3708;42.632;23.378;2023-02-18T11:07:32;94878.53;;;20.12;23.25
7335;BME280;3708;42.632;23.378;2023-02-18T11:10:09;94868.78;;;20.23;23.13
7335;BME280;3708;42.632;23.378;2023-02-18T11:12:43;94866.53;;;20.25;22.92
7335;BME280;3708;42.632;23.378;2023-02-18T11:15:20;94870.59;;;20.16;23.25
7335;BME280;3708;42.632;23.378;2023-02-18T11:17:49;94859.94;;;20.49;23.23
7335;BME280;3708;42.632;23.378;2023-02-18T11:20:28;94857.53;;;20.77;22.66
7335;BME280;3708;42.632;23.378;2023-02-18T11:23:15;94848.03;;;20.80;22.82
7335;BME280;3708;42.632;23.378;2023-02-18T11:25:53;94850.09;;;20.97;22.69
7335;BME280;3708;42.632;23.378;2023-02-18T11:28:27;94842.25;;;21.11;22.19
7335;BME280;3708;42.632;23.378;2023-02-18T11:30:57;94846.03;;;21.10;22.17
7335;BME280;3708;42.632;23.378;2023-02-18T11:33:31;94833.38;;;21.00;22.87
7335;BME280;3708;42.632;23.378;2023-02-18T11:36:12;94827.50;;;21.31;22.58
7335;BME280;3708;42.632;23.378;2023-02-18T11:38:46;94816.59;;;21.54;22.53
7335;BME280;3708;42.632;23.378;2023-02-18T11:41:16;94813.66;;;21.80;22.33
7335;BME280;3708;42.632;23.378;2023-02-18T11:43:47;94816.69;;;21.78;22.16
7335;BME280;3708;42.632;23.378;2023-02-18T11:46:19;94801.19;;;22.05;21.34
7335;BME280;3708;42.632;23.378;2023-02-18T11:48:47;94805.00;;;22.11;22.04
7335;BME280;3708;42.632;23.378;2023-02-18T11:51:18;94786.41;;;22.57;21.36
7335;BME280;3708;42.632;23.378;2023-02-18T11:53:57;94797.50;;;22.77;21.35
7335;BME280;3708;42.632;23.378;2023-02-18T11:56:26;94790.66;;;22.68;20.60
7335;BME280;3708;42.632;23.378;2023-02-18T11:58:54;94788.34;;;22.67;21.09
7335;BME280;3708;42.632;23.378;2023-02-18T12:01:27;94787.56;;;22.81;21.12
7335;BME280;3708;42.632;23.378;2023-02-18T12:03:58;94774.22;;;22.98;20.75
7335;BME280;3708;42.632;23.378;2023-02-18T12:06:32;94772.63;;;23.39;20.46
7335;BME280;3708;42.632;23.378;2023-02-18T12:09:03;94769.13;;;23.53;20.48
7335;BME280;3708;42.632;23.378;2023-02-18T12:11:33;94769.44;;;23.73;20.34
7335;BME280;3708;42.632;23.378;2023-02-18T12:14:02;94762.63;;;23.54;19.64
7335;BME280;3708;42.632;23.378;2023-02-18T12:16:36;94768.84;;;24.16;19.27
7335;BME280;3708;42.632;23.378;2023-02-18T12:19:23;94764.19;;;24.28;19.24
7335;BME280;3708;42.632;23.378;2023-02-18T12:22:01;94759.00;;;24.58;19.25
7335;BME280;3708;42.632;23.378;2023-02-18T12:24:42;94750.13;;;25.09;18.47
7335;BME280;3708;42.632;23.378;2023-02-18T12:27:15;94757.09;;;24.58;18.40
7335;BME280;3708;42.632;23.378;2023-02-18T12:29:55;94750.72;;;24.38;19.06
7335;BME280;3708;42.632;23.378;2023-02-18T12:32:35;94737.03;;;24.29;18.69
7335;BME280;3708;42.632;23.378;2023-02-18T12:35:18;94740.16;;;24.20;18.85
7335;BME280;3708;42.632;23.378;2023-02-18T12:38:17;94734.66;;;23.73;18.86
7335;BME280;3708;42.632;23.378;2023-02-18T12:40:58;94716.03;;;23.52;19.15
7335;BME280;3708;42.632;23.378;2023-02-18T12:43:32;94721.28;;;23.76;19.34
7335;BME280;3708;42.632;23.378;2023-02-18T12:46:20;94717.47;;;23.70;19.14
7335;BME280;3708;42.632;23.378;2023-02-18T12:49:06;94718.31;;;23.57;19.60
7335;BME280;3708;42.632;23.378;2023-02-18T12:51:43;94712.91;;;23.64;19.45
7335;BME280;3708;42.632;23.378;2023-02-18T12:54:37;94718.84;;;24.06;19.12
7335;BME280;3708;42.632;23.378;2023-02-18T12:57:33;94715.00;;;24.11;19.20
7335;BME280;3708;42.632;23.378;2023-02-18T13:00:28;94710.44;;;23.07;19.75
7335;BME280;3708;42.632;23.378;2023-02-18T13:06:08;94743.03;;;19.86;23.75
7335;BME280;3708;42.632;23.378;2023-02-18T13:08:48;94722.72;;;19.34;24.98
7335;BME280;3708;42.632;23.378;2023-02-18T13:11:30;94732.59;;;19.37;24.60
7335;BME280;3708;42.632;23.378;2023-02-18T13:14:01;94724.84;;;19.92;24.05
7335;BME280;3708;42.632;23.378;2023-02-18T13:16:31;94723.44;;;19.05;25.14
7335;BME280;3708;42.632;23.378;2023-02-18T13:19:02;94724.22;;;19.06;24.88
7335;BME280;3708;42.632;23.378;2023-02-18T13:21:35;94732.50;;;18.74;25.46
7335;BME280;3708;42.632;23.378;2023-02-18T13:24:05;94720.25;;;19.22;24.72
7335;BME280;3708;42.632;23.378;2023-02-18T13:26:34;94713.91;;;19.60;24.07
7335;BME280;3708;42.632;23.378;2023-02-18T13:29:14;94708.59;;;19.60;23.94
7335;BME280;3708;42.632;23.378;2023-02-18T13:31:49;94717.16;;;18.61;24.54
7335;BME280;3708;42.632;23.378;2023-02-18T13:34:24;94721.09;;;19.59;23.68
7335;BME280;3708;42.632;23.378;2023-02-18T13:37:02;94712.47;;;19.07;23.93
7335;BME280;3708;42.632;23.378;2023-02-18T13:39:31;94715.31;;;18.91;24.22
7335;BME280;3708;42.632;23.378;2023-02-18T13:47:46;94699.97;;;18.77;24.18
7335;BME280;3708;42.632;23.378;2023-02-18T13:50:23;94704.50;;;18.28;25.19